Map

Track Data

SID SEASON NUMBER BASIN SUBBASIN NAME ISO_TIME NATURE LAT LON WMO_WIND WMO_PRES WMO_AGENCY TRACK_TYPE DIST2LAND LANDFALL IFLAG USA_AGENCY USA_ATCF_ID USA_LAT USA_LON USA_RECORD USA_STATUS USA_WIND USA_PRES USA_SSHS USA_R34_NE USA_R34_SE USA_R34_SW USA_R34_NW USA_R50_NE USA_R50_SE USA_R50_SW USA_R50_NW USA_R64_NE USA_R64_SE USA_R64_SW USA_R64_NW USA_POCI USA_ROCI USA_RMW USA_EYE TOKYO_LAT TOKYO_LON TOKYO_GRADE TOKYO_WIND TOKYO_PRES TOKYO_R50_DIR TOKYO_R50_LONG TOKYO_R50_SHORT TOKYO_R30_DIR TOKYO_R30_LONG TOKYO_R30_SHORT TOKYO_LAND CMA_LAT CMA_LON CMA_CAT CMA_WIND CMA_PRES HKO_LAT HKO_LON HKO_CAT HKO_WIND HKO_PRES NEWDELHI_LAT NEWDELHI_LON NEWDELHI_GRADE NEWDELHI_WIND NEWDELHI_PRES NEWDELHI_CI NEWDELHI_DP NEWDELHI_POCI REUNION_LAT REUNION_LON REUNION_TYPE REUNION_WIND REUNION_PRES REUNION_TNUM REUNION_CI REUNION_RMW REUNION_R34_NE REUNION_R34_SE REUNION_R34_SW REUNION_R34_NW REUNION_R50_NE REUNION_R50_SE REUNION_R50_SW REUNION_R50_NW REUNION_R64_NE REUNION_R64_SE REUNION_R64_SW REUNION_R64_NW BOM_LAT BOM_LON BOM_TYPE BOM_WIND BOM_PRES BOM_TNUM BOM_CI BOM_RMW BOM_R34_NE BOM_R34_SE BOM_R34_SW BOM_R34_NW BOM_R50_NE BOM_R50_SE BOM_R50_SW BOM_R50_NW BOM_R64_NE BOM_R64_SE BOM_R64_SW BOM_R64_NW BOM_ROCI BOM_POCI BOM_EYE BOM_POS_METHOD BOM_PRES_METHOD NADI_LAT NADI_LON NADI_CAT NADI_WIND NADI_PRES WELLINGTON_LAT WELLINGTON_LON WELLINGTON_WIND WELLINGTON_PRES DS824_LAT DS824_LON DS824_STAGE DS824_WIND DS824_PRES TD9636_LAT TD9636_LON TD9636_STAGE TD9636_WIND TD9636_PRES TD9635_LAT TD9635_LON TD9635_WIND TD9635_PRES TD9635_ROCI NEUMANN_LAT NEUMANN_LON NEUMANN_CLASS NEUMANN_WIND NEUMANN_PRES MLC_LAT MLC_LON MLC_CLASS MLC_WIND MLC_PRES USA_GUST BOM_GUST BOM_GUST_PER REUNION_GUST REUNION_GUST_PER USA_SEAHGT USA_SEARAD_NE USA_SEARAD_SE USA_SEARAD_SW USA_SEARAD_NW STORM_SPEED STORM_DIR
1943284N13300 1943 72 NA CS NOT_NAMED 1943-10-11 06:00:00 TS 12.7000 -60.5000 45 hurdat_atl main 230 226 O_____________ hurdat_atl AL091943 12.7000 -60.5000 TS 45 0 5 267
1943284N13300 1943 72 NA CS NOT_NAMED 1943-10-11 09:00:00 TS 12.6875 -60.7500 main 225 223 P_____________ AL091943 12.6875 -60.7500 TS 47 0 5 270
1943284N13300 1943 72 NA CS NOT_NAMED 1943-10-11 12:00:00 TS 12.7000 -61.0000 50 hurdat_atl main 223 223 O_____________ hurdat_atl AL091943 12.7000 -61.0000 TS 50 0 5 277
1943284N13300 1943 72 NA CS NOT_NAMED 1943-10-11 15:00:00 TS 12.7500 -61.2500 main 223 223 P_____________ AL091943 12.7500 -61.2500 TS 50 0 5 282
1943284N13300 1943 72 NA CS NOT_NAMED 1943-10-11 18:00:00 TS 12.8000 -61.5000 50 hurdat_atl main 235 235 O_____________ hurdat_atl AL091943 12.8000 -61.5000 TS 50 0 5 276
1943284N13300 1943 72 NA CS NOT_NAMED 1943-10-11 21:00:00 TS 12.8000 -61.7500 main 235 235 P_____________ AL091943 12.8000 -61.7500 TS 52 0 5 270
1943284N13300 1943 72 NA CS NOT_NAMED 1943-10-12 00:00:00 TS 12.8000 -62.0000 55 hurdat_atl main 236 235 O_____________ hurdat_atl AL091943 12.8000 -62.0000 TS 55 0 5 275
1943284N13300 1943 72 NA CS NOT_NAMED 1943-10-12 03:00:00 TS 12.8425 -62.2500 main 235 235 P_____________ AL091943 12.8425 -62.2500 TS 57 0 5 282
1943284N13300 1943 72 NA CS NOT_NAMED 1943-10-12 06:00:00 TS 12.9000 -62.5000 60 hurdat_atl main 246 246 O_____________ hurdat_atl AL091943 12.9000 -62.5000 TS 60 0 5 282
1943284N13300 1943 72 NA CS NOT_NAMED 1943-10-12 09:00:00 TS 12.9425 -62.7500 main 246 246 P_____________ AL091943 12.9425 -62.7500 TS 62 0 5 282
1943284N13300 1943 72 NA CS NOT_NAMED 1943-10-12 12:00:00 TS 13.0000 -63.0000 65 hurdat_atl main 257 257 O_____________ hurdat_atl AL091943 13.0000 -63.0000 HU 65 1 5 287
1943284N13300 1943 72 NA CS NOT_NAMED 1943-10-12 15:00:00 TS 13.0925 -63.2500 main 268 268 P_____________ AL091943 13.0925 -63.2500 HU 67 1 5 292
1943284N13300 1943 72 NA CS NOT_NAMED 1943-10-12 18:00:00 TS 13.2000 -63.5000 70 hurdat_atl main 283 283 O_____________ hurdat_atl AL091943 13.2000 -63.5000 HU 70 1 5 293
1943284N13300 1943 72 NA CS NOT_NAMED 1943-10-12 21:00:00 TS 13.3000 -63.7500 main 300 300 P_____________ AL091943 13.3000 -63.7500 HU 70 1 5 292
1943284N13300 1943 72 NA CS NOT_NAMED 1943-10-13 00:00:00 TS 13.4000 -64.0000 70 hurdat_atl main 313 313 O_____________ hurdat_atl AL091943 13.4000 -64.0000 HU 70 1 5 291
1943284N13300 1943 72 NA CS NOT_NAMED 1943-10-13 03:00:00 TS 13.4850 -64.2501 main 324 324 P_____________ AL091943 13.4850 -64.2501 HU 72 1 5 292
1943284N13300 1943 72 NA CS NOT_NAMED 1943-10-13 06:00:00 TS 13.6000 -64.5000 75 hurdat_atl main 337 337 O_____________ hurdat_atl AL091943 13.6000 -64.5000 HU 75 1 6 301
1943284N13300 1943 72 NA CS NOT_NAMED 1943-10-13 09:00:00 TS 13.7775 -64.7500 main 364 364 P_____________ AL091943 13.7775 -64.7500 HU 75 1 6 309
1943284N13300 1943 72 NA CS NOT_NAMED 1943-10-13 12:00:00 TS 14.0000 -65.0000 75 hurdat_atl main 390 390 O_____________ hurdat_atl AL091943 14.0000 -65.0000 HU 75 1 7 313
1943284N13300 1943 72 NA CS NOT_NAMED 1943-10-13 15:00:00 TS 14.2350 -65.2501 main 410 387 P_____________ AL091943 14.2350 -65.2501 HU 75 1 7 316
1943284N13300 1943 72 NA CS NOT_NAMED 1943-10-13 18:00:00 TS 14.5000 -65.5000 75 hurdat_atl main 387 351 O_____________ hurdat_atl AL091943 14.5000 -65.5000 HU 75 1 7 319
1943284N13300 1943 72 NA CS NOT_NAMED 1943-10-13 21:00:00 TS 14.7925 -65.7500 main 349 314 P_____________ AL091943 14.7925 -65.7500 HU 75 1 8 321
1943284N13300 1943 72 NA CS NOT_NAMED 1943-10-14 00:00:00 TS 15.1000 -66.0000 75 hurdat_atl main 314 279 O_____________ hurdat_atl AL091943 15.1000 -66.0000 HU 75 1 8 321
1943284N13300 1943 72 NA CS NOT_NAMED 1943-10-14 03:00:00 TS 15.3850 -66.2501 main 279 248 P_____________ AL091943 15.3850 -66.2501 HU 77 1 8 321
1943284N13300 1943 72 NA CS NOT_NAMED 1943-10-14 06:00:00 TS 15.7000 -66.5000 80 hurdat_atl main 248 213 O_____________ hurdat_atl AL091943 15.7000 -66.5000 HU 80 1 8 325
1943284N13300 1943 72 NA CS NOT_NAMED 1943-10-14 09:00:00 TS 16.0700 -66.7501 main 201 157 P_____________ AL091943 16.0700 -66.7501 HU 80 1 9 329
1943284N13300 1943 72 NA CS NOT_NAMED 1943-10-14 12:00:00 TS 16.5000 -67.0000 80 hurdat_atl main 157 111 O_____________ hurdat_atl AL091943 16.5000 -67.0000 HU 80 1 10 332
1943284N13300 1943 72 NA CS NOT_NAMED 1943-10-14 15:00:00 TS 16.9700 -67.2501 main 101 54 P_____________ AL091943 16.9700 -67.2501 HU 80 1 11 334
1943284N13300 1943 72 NA CS NOT_NAMED 1943-10-14 18:00:00 TS 17.5000 -67.5000 80 hurdat_atl main 54 43 O_____________ hurdat_atl AL091943 17.5000 -67.5000 HU 80 1 12 336
1943284N13300 1943 72 NA CS NOT_NAMED 1943-10-14 21:00:00 TS 18.0775 -67.7576 main 62 31 P_____________ AL091943 18.0775 -67.7576 HU 80 1 13 338
1943284N13300 1943 72 NA NA NOT_NAMED 1943-10-15 00:00:00 TS 18.7000 -68.0000 80 hurdat_atl main 33 30 O_____________ hurdat_atl AL091943 18.7000 -68.0000 HU 80 1 13 340
1943284N13300 1943 72 NA NA NOT_NAMED 1943-10-15 03:00:00 TS 19.3275 -68.2300 main 69 69 P_____________ AL091943 19.3275 -68.2300 HU 82 1 14 344
1943284N13300 1943 72 NA NA NOT_NAMED 1943-10-15 06:00:00 TS 20.0000 -68.4000 85 hurdat_atl main 122 122 O_____________ hurdat_atl AL091943 20.0000 -68.4000 HU 85 2 14 351
1943284N13300 1943 72 NA NA NOT_NAMED 1943-10-15 09:00:00 TS 20.7275 -68.4802 main 177 177 P_____________ AL091943 20.7275 -68.4802 HU 85 2 15 356
1943284N13300 1943 72 NA NA NOT_NAMED 1943-10-15 12:00:00 TS 21.5000 -68.5000 85 hurdat_atl main 259 259 O_____________ hurdat_atl AL091943 21.5000 -68.5000 HU 85 2 16 358
1943284N13300 1943 72 NA NA NOT_NAMED 1943-10-15 15:00:00 TS 22.2850 -68.5150 main 339 339 P_____________ AL091943 22.2850 -68.5150 HU 87 2 16 0
1943284N13300 1943 72 NA NA NOT_NAMED 1943-10-15 18:00:00 TS 23.1000 -68.5000 90 hurdat_atl main 421 421 O_____________ hurdat_atl AL091943 23.1000 -68.5000 HU 90 2 17 1
1943284N13300 1943 72 NA NA NOT_NAMED 1943-10-15 21:00:00 TS 23.9350 -68.4649 main 505 505 P_____________ AL091943 23.9350 -68.4649 HU 90 2 17 3
1943284N13300 1943 72 NA NA NOT_NAMED 1943-10-16 00:00:00 TS 24.8000 -68.4000 90 hurdat_atl main 602 602 O_____________ hurdat_atl AL091943 24.8000 -68.4000 HU 90 2 18 5
1943284N13300 1943 72 NA NA NOT_NAMED 1943-10-16 03:00:00 TS 25.6700 -68.3075 main 694 694 P_____________ AL091943 25.6700 -68.3075 HU 92 2 18 6
1943284N13300 1943 72 NA NA NOT_NAMED 1943-10-16 06:00:00 TS 26.6000 -68.2000 95 hurdat_atl main 775 775 O_____________ hurdat_atl AL091943 26.6000 -68.2000 HU 95 2 20 5
1943284N13300 1943 72 NA NA NOT_NAMED 1943-10-16 09:00:00 TS 27.6125 -68.0998 main 870 870 P_____________ AL091943 27.6125 -68.0998 HU 95 2 21 5
1943284N13300 1943 72 NA NA NOT_NAMED 1943-10-16 12:00:00 TS 28.7000 -68.0000 95 hurdat_atl main 977 977 O_____________ hurdat_atl AL091943 28.7000 -68.0000 HU 95 2 22 4
1943284N13300 1943 72 NA NA NOT_NAMED 1943-10-16 15:00:00 TS 29.8125 -67.9069 main 970 898 P_____________ AL091943 29.8125 -67.9069 HU 95 2 23 4
1943284N13300 1943 72 NA NA NOT_NAMED 1943-10-16 18:00:00 TS 31.0000 -67.8000 95 hurdat_atl main 891 827 O_____________ hurdat_atl AL091943 31.0000 -67.8000 HU 95 2 24 5
1943284N13300 1943 72 NA NA NOT_NAMED 1943-10-16 21:00:00 TS 32.2176 -67.6713 main 821 773 P_____________ AL091943 32.2176 -67.6713 HU 77 1 26 6
1943284N13300 1943 72 NA NA NOT_NAMED 1943-10-17 00:00:00 TS 33.6000 -67.5000 60 hurdat_atl main 769 743 O_____________ hurdat_atl AL091943 33.6000 -67.5000 TS 60 0 30 6
1943284N13300 1943 72 NA NA NOT_NAMED 1943-10-17 03:00:00 TS 35.2276 -67.2706 main 743 592 P_____________ AL091943 35.2276 -67.2706 TS 52 0 34 7
1943284N13300 1943 72 NA NA NOT_NAMED 1943-10-17 06:00:00 TS 37.0000 -67.0000 45 hurdat_atl main 582 O_____________ hurdat_atl AL091943 37.0000 -67.0000 TS 45 0 36 7

About IBTrACS Database

This database is a web-friendly format of International Best Track Archive for Climate Stewardship (IBTrACS), a global best track data archive curated by NOAA dating back to 1842.

Updated: 2021-12-08